Terminal Aerodrome Forecast
Issued by NWS

Home | Current Version | Previous Version | Text Only | Print | Product List | Glossary On
Versions: 1 2 3 4 5 6 7 8 9 10 11 12 13
000
FTUS46 KSEW 131124
TAFHQM
TAF
KHQM 131124Z 1312/1412 08008KT P6SM SKC
      TEMPO 1314/1318 2SM BR SCT002
     FM141100 08008KT 2SM BR BKN002=

USA.gov is the U.S. government's official web portal to all federal, state and local government web resources and services.